Time;durP1;ratioP1;P1;durP2;ratioP2;P2;SDS_P1;SDS_P2;PMS_P1;PMS_P2;Temp;Humidity;BMP_temperature;BMP_pressure;BME280_temperature;BME280_humidity;BME280_pressure;Samples;Min_cycle;Max_cycle;Signal;HPM_P1;HPM_P2
2022/10/26 08:04:58;;;;;;;4.25;1.67;;;;;;;13.28;88.11;96745.22;2087769;27;20562;-62
2022/10/26 08:55:14;;;;;;;3.83;1.70;;;;;;;18.04;71.16;96783.06;2080438;28;21060;-64
2022/10/26 08:56:55;;;;;;;9.73;1.88;;;;;;;17.89;69.67;96782.34;2091591;27;20544;-62
2022/10/26 08:58:00;;;;;;;5.70;2.10;;;;;;;17.26;71.71;96797.34;2091059;28;20299;-62
2022/10/26 09:11:20;;;;;;;13.20;2.28;;;;;;;17.44;73.57;96808.41;2083838;28;20893;-62
2022/10/26 09:12:40;;;;;;;15.75;2.53;;;;;;;17.66;72.24;96818.31;2085201;28;20346;-62
2022/10/26 09:14:00;;;;;;;8.13;1.80;;;;;;;18.07;70.50;96819.00;2082323;28;20251;-64
2022/10/26 09:15:13;;;;;;;12.32;2.35;;;;;;;19.06;67.83;96822.31;2076891;28;20629;-64
2022/10/26 09:16:33;;;;;;;7.75;2.40;;;;;;;19.70;65.64;96823.56;2073085;28;20874;-64
2022/10/26 09:17:56;;;;;;;13.90;2.13;;;;;;;18.90;66.94;96828.72;2078340;28;20641;-64
2022/10/26 09:19:19;;;;;;;10.98;2.05;;;;;;;18.97;67.68;96825.63;2076648;28;20292;-64
2022/10/26 09:20:57;;;;;;;10.93;2.05;;;;;;;19.08;67.02;96834.47;2075556;28;20222;-64
2022/10/26 09:22:24;;;;;;;15.75;3.83;;;;;;;20.92;62.45;96831.47;2075241;28;20307;-62
2022/10/26 09:23:53;;;;;;;9.07;2.50;;;;;;;21.00;61.56;96835.19;2073177;28;20305;-62
2022/10/26 09:24:55;;;;;;;13.00;2.10;;;;;;;20.82;61.85;96828.75;2071919;28;20248;-62
2022/10/26 09:26:02;;;;;;;14.18;3.65;;;;;;;21.23;60.54;96843.00;2075544;28;20236;-62
2022/10/26 09:27:25;;;;;;;9.93;2.20;;;;;;;21.16;59.92;96831.22;2074886;28;20233;-62
2022/10/26 09:28:36;;;;;;;9.05;2.55;;;;;;;22.14;57.86;96827.19;2075383;28;20204;-62
2022/10/26 09:29:42;;;;;;;8.90;2.45;;;;;;;21.50;58.51;96839.78;2074200;28;20222;-62
2022/10/26 09:30:47;;;;;;;13.57;2.28;;;;;;;21.88;58.54;96839.28;2070947;28;20702;-62
2022/10/26 09:31:52;;;;;;;9.68;2.00;;;;;;;22.00;58.54;96844.38;2073117;28;20802;-62
2022/10/26 09:32:58;;;;;;;10.57;1.70;;;;;;;22.55;56.82;96840.47;2074929;28;20716;-62
2022/10/26 09:34:04;;;;;;;11.93;2.25;;;;;;;22.83;56.02;96845.94;2073340;28;20193;-62
2022/10/26 09:35:24;;;;;;;8.40;2.45;;;;;;;22.79;55.64;96841.84;2073614;28;20229;-62
2022/10/26 09:36:26;;;;;;;8.50;2.20;;;;;;;20.86;60.01;96838.97;2074565;28;20205;-62
2022/10/26 09:37:33;;;;;;;8.40;2.72;;;;;;;20.19;62.38;96826.78;2072983;28;20321;-62
2022/10/26 09:38:50;;;;;;;8.88;2.58;;;;;;;19.42;64.72;96815.13;2077944;28;20229;-62
2022/10/26 09:46:20;;;;;;;12.65;2.97;;;;;;;17.75;70.72;96830.88;2073692;28;20213;-62
2022/10/26 09:47:36;;;;;;;10.05;3.13;;;;;;;17.48;72.08;96838.09;2080467;28;20277;-62
2022/10/26 09:48:52;;;;;;;7.40;2.60;;;;;;;17.33;72.97;96843.47;2076384;28;20252;-62
2022/10/26 09:50:00;;;;;;;4.85;1.60;;;;;;;17.29;72.39;96840.22;2071532;28;20221;-62
2022/10/26 09:51:02;;;;;;;12.98;3.20;;;;;;;17.37;72.49;96844.09;2074513;28;20840;-62
2022/10/26 09:52:05;;;;;;;13.55;2.92;;;;;;;17.53;72.50;96839.44;2074053;28;20288;-62
2022/10/26 09:53:07;;;;;;;7.00;2.20;;;;;;;18.58;69.98;96844.34;2070876;28;20210;-62
2022/10/26 09:54:15;;;;;;;7.05;2.65;;;;;;;19.14;67.22;96846.38;2071391;28;20285;-62
2022/10/26 09:55:17;;;;;;;13.93;2.40;;;;;;;18.69;68.45;96852.34;2074434;28;20309;-62
2022/10/26 09:56:19;;;;;;;20.42;3.08;;;;;;;18.65;69.25;96835.03;2074058;28;20285;-62
2022/10/26 09:57:21;;;;;;;9.30;2.95;;;;;;;19.30;67.32;96851.34;2074044;28;20796;-62
2022/10/26 10:05:25;;;;;;;7.60;2.42;;;;;;;25.17;51.02;96877.09;2073854;28;20284;-62
2022/10/26 10:07:07;;;;;;;12.40;2.25;;;;;;;25.80;49.74;96878.72;2075088;28;20197;-62
2022/10/26 10:08:20;;;;;;;9.00;1.95;;;;;;;25.98;49.58;96875.09;2071871;28;20237;-62
2022/10/26 10:09:23;;;;;;;6.72;2.20;;;;;;;25.22;50.12;96870.25;2072893;28;20296;-62
2022/10/26 10:10:24;;;;;;;8.38;1.77;;;;;;;24.93;50.49;96875.88;2072057;28;20816;-62
2022/10/26 10:11:56;;;;;;;10.90;2.10;;;;;;;24.99;50.90;96877.94;2074371;28;20293;-62
2022/10/26 10:13:14;;;;;;;11.55;2.83;;;;;;;24.84;50.55;96879.47;2070935;28;20206;-62
2022/10/26 10:14:20;;;;;;;7.55;2.25;;;;;;;23.56;53.11;96873.88;2075849;28;20235;-62
2022/10/26 10:15:24;;;;;;;16.90;2.90;;;;;;;22.71;55.83;96885.13;2073807;28;20697;-62
2022/10/26 10:16:26;;;;;;;7.45;2.33;;;;;;;23.29;55.38;96881.66;2073688;28;20292;-62
2022/10/26 10:17:27;;;;;;;7.38;2.55;;;;;;;23.68;53.68;96886.06;2075216;28;20288;-62
2022/10/26 10:18:29;;;;;;;11.60;2.45;;;;;;;23.67;53.00;96876.38;2075729;28;20579;-62
2022/10/26 10:19:36;;;;;;;7.00;1.80;;;;;;;24.60;51.61;96884.34;2071084;28;20233;-62
2022/10/26 10:20:38;;;;;;;8.32;1.85;;;;;;;24.25;51.28;96879.81;2072167;28;20196;-62
2022/10/26 10:21:48;;;;;;;12.82;2.20;;;;;;;23.90;52.94;96882.19;2079503;28;20233;-62
2022/10/26 10:28:04;;;;;;;9.63;2.90;;;;;;;20.29;62.11;96894.00;2067906;28;20637;-62
2022/10/26 10:29:15;;;;;;;15.55;7.25;;;;;;;19.82;63.57;96887.97;2065027;28;20336;-61
2022/10/26 10:30:22;;;;;;;11.88;5.38;;;;;;;19.79;63.58;96889.03;2066838;28;20322;-61
2022/10/26 10:31:31;;;;;;;5.85;2.53;;;;;;;19.52;63.12;96892.88;2068318;28;20314;-62
2022/10/26 10:32:32;;;;;;;4.80;2.20;;;;;;;19.24;64.22;96883.56;2067985;28;20842;-61
2022/10/26 10:33:41;;;;;;;16.05;2.75;;;;;;;19.36;63.28;96887.94;2068656;28;20198;-62
2022/10/26 10:34:52;;;;;;;10.13;2.50;;;;;;;19.54;63.02;96896.25;2066825;28;20245;-61
2022/10/26 10:35:53;;;;;;;6.20;2.60;;;;;;;20.74;60.77;96893.06;2067840;28;20310;-61
2022/10/26 10:36:55;;;;;;;7.95;2.03;;;;;;;21.72;57.06;96884.97;2065240;28;20248;-61
2022/10/26 10:37:56;;;;;;;6.95;1.40;;;;;;;22.53;55.57;96897.44;2066751;28;20680;-61
2022/10/26 10:39:18;;;;;;;11.10;2.10;;;;;;;21.78;56.67;96889.75;2069716;28;20293;-61
2022/10/26 10:52:03;;;;;;;9.18;2.10;;;;;;;20.78;59.13;96912.22;2069383;28;20185;-63
2022/10/26 10:53:14;;;;;;;10.23;2.38;;;;;;;20.69;59.85;96911.13;2069867;28;20556;-63
2022/10/26 10:54:32;;;;;;;8.27;1.70;;;;;;;21.14;59.15;96916.31;2068691;28;20257;-63
2022/10/26 10:55:33;;;;;;;6.05;1.50;;;;;;;20.86;59.58;96907.13;2068214;28;20297;-63
2022/10/26 10:56:47;;;;;;;8.80;2.33;;;;;;;20.87;59.66;96916.78;2068926;28;20380;-64
2022/10/26 10:58:22;;;;;;;10.15;1.65;;;;;;;20.82;60.02;96918.97;2068993;28;20605;-62
2022/10/26 10:59:34;;;;;;;5.35;1.70;;;;;;;21.51;58.84;96912.38;2063085;28;20209;-62
2022/10/26 11:00:36;;;;;;;8.82;1.80;;;;;;;21.65;58.32;96897.94;2068396;28;20202;-62
2022/10/26 11:01:43;;;;;;;16.25;2.47;;;;;;;21.64;57.98;96917.50;2069315;28;20202;-62
2022/10/26 11:03:13;;;;;;;5.22;1.75;;;;;;;22.23;56.66;96909.78;2064995;28;20198;-62
2022/10/26 11:04:55;;;;;;;10.07;2.70;;;;;;;22.53;55.20;96913.41;2067892;28;20194;-62
2022/10/26 11:06:04;;;;;;;8.75;1.65;;;;;;;22.29;55.61;96914.56;2066374;28;20332;-62
2022/10/26 11:07:08;;;;;;;6.57;1.90;;;;;;;21.94;56.53;96916.69;2064902;28;20202;-62
2022/10/26 11:08:18;;;;;;;9.25;2.20;;;;;;;21.50;57.04;96910.69;2067037;28;20234;-62
2022/10/26 11:09:26;;;;;;;6.07;1.65;;;;;;;21.48;57.62;96917.94;2068552;28;20281;-62
2022/10/26 11:10:33;;;;;;;7.68;1.80;;;;;;;21.40;58.24;96913.28;2063872;28;20313;-62
2022/10/26 11:11:43;;;;;;;5.95;1.55;;;;;;;21.37;58.90;96919.69;2066711;28;20261;-62
2022/10/26 11:12:56;;;;;;;6.28;1.77;;;;;;;21.23;59.42;96909.41;2068300;28;20306;-62
2022/10/26 11:14:10;;;;;;;6.20;1.95;;;;;;;21.18;59.37;96911.59;2073659;28;20268;-63
2022/10/26 11:15:17;;;;;;;6.50;1.70;;;;;;;21.21;59.59;96909.50;2070620;28;20235;-62
2022/10/26 11:16:27;;;;;;;4.30;1.60;;;;;;;21.23;59.39;96913.84;2068954;28;20276;-62
2022/10/26 11:17:50;;;;;;;9.38;2.63;;;;;;;21.20;59.96;96910.50;2068815;28;20198;-63
2022/10/26 11:19:03;;;;;;;13.68;6.45;;;;;;;21.25;59.39;96910.09;2064821;28;20203;-63
2022/10/26 11:20:16;;;;;;;10.95;4.13;;;;;;;21.08;59.79;96921.25;2067092;28;20312;-63
2022/10/26 11:21:27;;;;;;;9.90;2.25;;;;;;;21.84;57.91;96919.28;2068595;28;20198;-63
2022/10/26 11:22:44;;;;;;;9.00;2.00;;;;;;;21.56;57.72;96912.84;2067702;28;20206;-63
2022/10/26 11:23:51;;;;;;;8.30;2.20;;;;;;;21.44;58.17;96920.00;2067430;28;20236;-63
2022/10/26 11:25:05;;;;;;;13.90;1.95;;;;;;;21.28;58.75;96915.16;2064065;28;20321;-63
2022/10/26 11:26:31;;;;;;;7.43;1.63;;;;;;;21.04;59.79;96926.00;2066344;28;20741;-62
2022/10/26 11:27:38;;;;;;;6.70;1.63;;;;;;;20.97;59.04;96925.66;2066812;28;20211;-63
2022/10/26 11:34:01;;;;;;;4.60;1.98;;;;;;;20.82;59.61;96924.28;2066702;28;20206;-63
2022/10/26 11:35:18;;;;;;;8.15;1.98;;;;;;;20.85;59.96;96929.34;2064260;28;20382;-63
2022/10/26 11:36:24;;;;;;;11.65;2.00;;;;;;;20.65;61.00;96930.94;2066972;28;20233;-63
2022/10/26 11:37:36;;;;;;;13.35;2.20;;;;;;;20.64;61.18;96923.94;2068545;28;20289;-63
2022/10/26 11:39:03;;;;;;;4.60;1.52;;;;;;;20.55;61.34;96933.47;2069045;28;20253;-63
2022/10/26 11:52:05;;;;;;;6.90;2.08;;;;;;;20.11;63.25;96924.63;2068155;28;20210;-62
2022/10/26 11:53:15;;;;;;;5.68;1.60;;;;;;;20.18;62.51;96928.47;2069359;28;20233;-63
2022/10/26 11:54:27;;;;;;;5.50;1.52;;;;;;;20.31;62.44;96929.16;2068290;28;20676;-63
2022/10/26 11:55:28;;;;;;;3.67;1.30;;;;;;;20.34;61.45;96933.38;2065577;28;20257;-63
2022/10/26 11:56:36;;;;;;;11.57;1.85;;;;;;;20.46;60.59;96920.97;2064695;28;20234;-63
2022/10/26 11:57:39;;;;;;;8.40;2.55;;;;;;;20.75;61.04;96923.94;2065889;28;20201;-63
2022/10/26 11:58:43;;;;;;;10.73;1.70;;;;;;;20.97;60.76;96923.00;2068130;28;20289;-63
2022/10/26 11:59:55;;;;;;;5.90;1.88;;;;;;;20.96;60.19;96928.44;2067689;28;20740;-61
2022/10/26 12:01:02;;;;;;;3.38;1.10;;;;;;;21.03;58.98;96929.63;2066662;28;20282;-61
2022/10/26 12:02:13;;;;;;;2.90;1.52;;;;;;;21.18;58.23;96928.34;2066422;28;20202;-61
2022/10/26 12:03:20;;;;;;;6.13;1.42;;;;;;;21.46;57.95;96927.88;2068517;28;20252;-62
2022/10/26 12:04:28;;;;;;;10.52;1.52;;;;;;;21.49;58.07;96930.25;2068798;28;20229;-61
2022/10/26 12:05:39;;;;;;;7.57;1.73;;;;;;;22.18;57.18;96926.13;2068747;28;20221;-61
2022/10/26 12:06:40;;;;;;;19.48;1.77;;;;;;;22.63;55.36;96912.44;2068827;28;20638;-61
2022/10/26 12:07:50;;;;;;;10.85;1.52;;;;;;;22.95;53.70;96922.00;2068714;28;20830;-61
2022/10/26 12:09:00;;;;;;;4.03;1.50;;;;;;;22.94;53.48;96935.44;2065696;28;20244;-61
2022/10/26 12:10:05;;;;;;;4.80;1.67;;;;;;;24.23;51.14;96933.31;2064369;28;20310;-61
2022/10/26 12:11:34;;;;;;;6.50;1.77;;;;;;;23.50;53.13;96931.25;2076953;28;20325;-61
2022/10/26 12:12:54;;;;;;;5.40;1.52;;;;;;;22.36;54.61;96931.69;2073516;28;20281;-62
2022/10/26 12:14:01;;;;;;;7.28;1.50;;;;;;;22.26;54.71;96926.31;2064912;28;20629;-61
2022/10/26 12:15:24;;;;;;;4.43;1.75;;;;;;;21.99;55.84;96925.09;2067147;28;20310;-61
2022/10/26 12:17:04;;;;;;;7.95;1.60;;;;;;;21.75;56.35;96932.53;2068135;28;20202;-61
2022/10/26 12:18:47;;;;;;;7.75;1.60;;;;;;;21.72;56.52;96932.78;2068065;28;20243;-61
2022/10/26 12:20:12;;;;;;;9.65;1.98;;;;;;;21.39;56.99;96930.16;2066809;28;20581;-61
2022/10/26 12:21:14;;;;;;;11.93;1.90;;;;;;;21.15;57.75;96936.59;2064449;28;20198;-61
2022/10/26 12:22:17;;;;;;;6.65;2.10;;;;;;;21.24;57.55;96944.75;2068527;28;20336;-61
2022/10/26 12:23:21;;;;;;;6.20;1.73;;;;;;;21.74;56.26;96937.00;2066297;28;20302;-62
2022/10/26 12:25:04;;;;;;;3.55;1.10;;;;;;;22.71;53.98;96932.19;2066814;28;20225;-61
2022/10/26 12:26:24;;;;;;;5.03;1.20;;;;;;;23.21;52.33;96940.13;2064334;28;20229;-61
2022/10/26 12:27:48;;;;;;;16.33;2.00;;;;;;;22.75;53.82;96942.41;2066016;28;20635;-61
2022/10/26 12:34:04;;;;;;;3.38;1.92;;;;;;;23.46;53.42;96945.84;2064882;28;20614;-62
2022/10/26 12:35:33;;;;;;;4.45;2.03;;;;;;;24.01;51.23;96944.34;2066440;28;20455;-61
2022/10/26 12:36:53;;;;;;;8.60;1.73;;;;;;;23.75;52.11;96945.78;2067333;28;20656;-61
2022/10/26 12:37:55;;;;;;;3.15;1.33;;;;;;;23.61;52.47;96947.06;2068006;28;20302;-61
2022/10/26 12:38:57;;;;;;;8.32;1.80;;;;;;;23.81;52.66;96944.38;2067098;28;20221;-61
2022/10/26 12:40:37;;;;;;;4.53;1.63;;;;;;;23.35;53.22;96943.31;2067144;28;20748;-60
2022/10/26 12:41:39;;;;;;;5.00;1.65;;;;;;;23.47;52.63;96943.03;2064771;28;20336;-61
2022/10/26 12:42:40;;;;;;;7.03;1.65;;;;;;;23.55;53.22;96952.97;2067029;28;20276;-60
2022/10/26 12:43:42;;;;;;;4.78;1.88;;;;;;;23.88;52.24;96945.47;2066963;28;20226;-60
2022/10/26 12:44:46;;;;;;;11.35;1.83;;;;;;;23.87;52.36;96946.47;2065486;28;20229;-61
2022/10/26 12:52:53;;;;;;;9.25;2.63;;;;;;;23.79;52.37;96959.66;2067844;28;20956;-62
2022/10/26 12:54:29;;;;;;;35.20;4.88;;;;;;;23.55;52.83;96960.97;2067714;28;20198;-62
2022/10/26 12:55:46;;;;;;;51.00;6.38;;;;;;;23.69;52.80;96961.53;2068570;28;20265;-67
2022/10/26 12:56:54;;;;;;;19.70;6.90;;;;;;;23.63;52.93;96960.28;2067955;28;20247;-67
2022/10/26 12:58:23;;;;;;;6.28;2.75;;;;;;;23.78;52.90;96957.97;2067553;28;20222;-66
2022/10/26 12:59:37;;;;;;;12.55;6.40;;;;;;;24.25;52.73;96970.50;2070632;28;20280;-66
2022/10/26 13:00:48;;;;;;;4.65;1.60;;;;;;;24.23;51.21;96965.31;2070556;28;20244;-65
2022/10/26 13:02:08;;;;;;;17.70;2.83;;;;;;;24.21;50.12;96958.44;2067980;28;20240;-67
2022/10/26 13:03:25;;;;;;;47.78;4.63;;;;;;;23.80;50.21;96959.53;2066128;28;20233;-67
2022/10/26 13:05:05;;;;;;;45.05;5.85;;;;;;;24.08;50.36;96964.94;2066068;28;20646;-66
2022/10/26 13:06:30;;;;;;;47.45;6.95;;;;;;;24.26;49.92;96965.03;2063301;28;20232;-65
2022/10/26 13:07:37;;;;;;;11.20;2.35;;;;;;;24.25;48.58;96973.19;2067314;28;20292;-65
2022/10/26 13:08:42;;;;;;;14.80;1.75;;;;;;;24.27;48.68;96971.22;2067141;28;20242;-64
2022/10/26 13:15:02;;;;;;;7.53;1.70;;;;;;;24.93;48.73;96964.81;2067236;28;20249;-65
2022/10/26 13:16:04;;;;;;;5.72;1.40;;;;;;;24.62;49.61;96969.66;2067402;28;20236;-64
2022/10/26 13:17:20;;;;;;;7.40;1.65;;;;;;;24.52;49.54;96966.16;2064200;28;20446;-65
2022/10/26 13:18:22;;;;;;;5.45;2.22;;;;;;;24.24;50.23;96972.34;2065489;28;20199;-65
2022/10/26 13:19:37;;;;;;;8.57;1.95;;;;;;;24.62;50.19;96975.00;2064020;28;20333;-65
2022/10/26 13:20:59;;;;;;;11.48;2.10;;;;;;;24.67;49.02;96969.22;2065950;28;20309;-65
2022/10/26 13:22:01;;;;;;;9.55;1.73;;;;;;;24.24;49.09;96964.34;2068971;28;20285;-65
2022/10/26 13:23:18;;;;;;;8.18;1.98;;;;;;;24.64;49.14;96977.50;2070442;28;20728;-64
2022/10/26 13:24:27;;;;;;;6.53;1.45;;;;;;;24.25;49.53;96973.19;2068388;28;20198;-64
2022/10/26 13:25:30;;;;;;;6.20;1.38;;;;;;;24.18;49.12;96967.59;2068040;28;20255;-64
2022/10/26 13:26:51;;;;;;;4.35;1.38;;;;;;;24.17;49.51;96970.41;2067794;28;20204;-64
2022/10/26 13:28:01;;;;;;;4.70;1.80;;;;;;;23.71;48.84;96975.56;2068021;28;20297;-67
2022/10/26 13:29:03;;;;;;;5.32;1.40;;;;;;;23.61;50.20;96970.22;2066113;28;20210;-64
2022/10/26 13:30:55;;;;;;;4.45;1.10;;;;;;;23.96;49.42;96974.13;2072863;28;20689;-64
2022/10/26 13:31:57;;;;;;;5.35;1.42;;;;;;;24.55;48.96;96974.72;2054075;28;20294;-64
2022/10/26 13:33:01;;;;;;;5.07;1.40;;;;;;;24.62;48.40;96975.81;2068060;28;20288;-64
2022/10/26 13:34:12;;;;;;;8.25;1.83;;;;;;;24.53;48.17;96979.38;2067664;28;20209;-64
2022/10/26 13:35:21;;;;;;;9.63;1.50;;;;;;;24.58;47.89;96981.59;2068207;28;20263;-65
2022/10/26 13:36:32;;;;;;;10.55;1.45;;;;;;;24.24;48.99;96983.00;2066702;28;20285;-65
2022/10/26 13:37:33;;;;;;;11.32;1.42;;;;;;;23.77;48.88;96977.66;2064000;28;20290;-65
2022/10/26 13:38:36;;;;;;;5.35;1.60;;;;;;;23.94;49.22;96984.09;2065052;28;20277;-64
2022/10/26 13:39:41;;;;;;;5.72;1.60;;;;;;;24.31;48.74;96977.09;2065667;28;20234;-65
2022/10/26 13:40:43;;;;;;;5.95;1.80;;;;;;;24.49;47.95;96982.50;2067521;28;20974;-64
2022/10/26 13:41:48;;;;;;;10.25;1.90;;;;;;;24.60;47.69;96983.13;2067354;28;20877;-64
2022/10/26 13:42:54;;;;;;;4.70;1.30;;;;;;;24.08;47.96;96982.78;2067091;28;20286;-64
2022/10/26 13:43:57;;;;;;;5.47;1.83;;;;;;;23.97;48.34;96983.78;2067086;28;20285;-65
2022/10/26 14:03:13;;;;;;;8.00;3.08;;;;;;;25.08;46.75;97005.22;2068283;28;20178;-64
2022/10/26 14:04:26;;;;;;;6.60;1.60;;;;;;;25.08;46.60;96978.50;2069796;28;20235;-66
2022/10/26 14:05:27;;;;;;;4.63;1.50;;;;;;;25.45;46.41;96994.59;2068203;28;20898;-65
2022/10/26 14:06:36;;;;;;;6.15;1.45;;;;;;;25.85;45.67;97010.13;2068637;28;20233;-65
2022/10/26 14:07:46;;;;;;;8.60;1.85;;;;;;;25.84;45.93;97008.44;2069076;28;20340;-65
2022/10/26 14:08:54;;;;;;;6.18;1.77;;;;;;;25.64;45.63;97005.09;2068868;28;20198;-65
2022/10/26 14:09:56;;;;;;;9.20;1.70;;;;;;;26.10;45.10;97004.13;2067893;28;20759;-65
2022/10/26 14:10:58;;;;;;;4.70;1.20;;;;;;;26.24;44.92;97006.22;2065480;28;20294;-67
2022/10/26 14:12:01;;;;;;;4.40;1.45;;;;;;;26.27;45.44;97008.59;2065991;28;20637;-68
2022/10/26 14:13:07;;;;;;;6.55;1.25;;;;;;;25.85;44.79;97006.59;2069524;28;20351;-67
2022/10/26 14:14:17;;;;;;;3.35;1.27;;;;;;;25.56;45.78;97016.56;2069216;28;20209;-67
2022/10/26 14:15:25;;;;;;;8.07;1.35;;;;;;;25.06;46.79;97015.22;2068788;28;20233;-68
2022/10/26 14:16:30;;;;;;;10.75;1.70;;;;;;;25.42;45.67;97022.47;2068647;28;20230;-67
2022/10/26 14:17:32;;;;;;;5.03;1.20;;;;;;;24.96;45.86;97008.25;2068401;28;20650;-68
2022/10/26 14:18:36;;;;;;;7.45;1.73;;;;;;;25.08;46.36;97023.09;2067993;28;20210;-67
2022/10/26 14:19:39;;;;;;;12.93;1.70;;;;;;;25.04;46.74;97024.38;2069073;28;20229;-68
2022/10/26 14:20:48;;;;;;;5.00;1.30;;;;;;;25.32;46.23;97027.00;2069189;28;20706;-65
2022/10/26 14:33:26;;;;;;;7.50;1.30;;;;;;;24.28;46.97;97029.75;2067932;28;20182;-65
2022/10/26 14:34:27;;;;;;;6.85;1.40;;;;;;;24.25;47.77;97038.06;2068732;28;20646;-65
2022/10/26 14:35:36;;;;;;;3.40;1.20;;;;;;;24.34;48.30;97038.16;2067943;28;20666;-65
2022/10/26 14:36:54;;;;;;;10.80;1.63;;;;;;;24.46;47.80;97034.34;2067356;28;20328;-65
2022/10/26 14:37:59;;;;;;;7.70;1.48;;;;;;;24.24;48.04;97036.38;2068041;28;20230;-65
2022/10/26 14:45:36;;;;;;;3.65;1.40;;;;;;;24.51;47.29;97048.06;2068090;28;20214;-66
2022/10/26 14:46:50;;;;;;;3.60;1.40;;;;;;;24.51;46.94;97039.25;2068932;28;20197;-66
2022/10/26 14:47:51;;;;;;;11.98;1.38;;;;;;;24.77;46.43;97050.97;2064996;28;20274;-65
2022/10/26 14:48:56;;;;;;;8.00;1.50;;;;;;;24.65;46.91;97044.13;2069659;28;20222;-66
2022/10/26 14:49:58;;;;;;;5.40;1.10;;;;;;;24.61;46.98;97043.53;2068166;28;20301;-65
2022/10/26 14:51:07;;;;;;;7.80;1.23;;;;;;;24.43;47.07;97053.31;2069396;28;20547;-66
2022/10/26 14:52:18;;;;;;;5.00;1.30;;;;;;;24.27;47.59;97048.59;2069624;28;20237;-66
2022/10/26 14:53:20;;;;;;;9.30;1.58;;;;;;;24.09;48.05;97046.66;2070534;28;20246;-66
2022/10/26 14:54:27;;;;;;;10.05;1.70;;;;;;;24.46;48.03;97037.81;2068333;28;20240;-66
2022/10/26 14:55:41;;;;;;;4.57;1.20;;;;;;;24.71;47.13;97053.34;2068060;28;20202;-66
2022/10/26 14:56:43;;;;;;;10.20;1.80;;;;;;;24.42;47.94;97051.63;2068386;28;20285;-66
2022/10/26 15:09:29;;;;;;;5.18;1.50;;;;;;;21.98;54.21;97060.81;2066613;28;20182;-65
2022/10/26 15:10:37;;;;;;;5.72;1.42;;;;;;;21.67;54.49;97050.09;2065967;28;20241;-66
2022/10/26 15:11:42;;;;;;;10.10;1.63;;;;;;;21.27;55.58;97032.97;2068103;28;20749;-66
2022/10/26 15:12:43;;;;;;;6.72;1.25;;;;;;;21.35;56.70;97054.41;2066765;28;20253;-66
2022/10/26 15:13:45;;;;;;;12.93;1.70;;;;;;;21.37;56.67;97055.13;2064881;28;20674;-66
2022/10/26 15:14:47;;;;;;;8.27;1.60;;;;;;;21.48;57.06;97054.25;2065678;28;20309;-66
2022/10/26 15:15:50;;;;;;;9.25;1.70;;;;;;;21.42;57.57;97057.44;2068650;28;20328;-66
2022/10/26 15:16:58;;;;;;;5.82;1.77;;;;;;;21.07;58.20;97060.31;2069171;28;20204;-66
2022/10/26 15:18:00;;;;;;;5.78;1.90;;;;;;;20.33;60.66;97061.66;2066895;28;20240;-66
2022/10/26 15:19:15;;;;;;;8.98;1.83;;;;;;;21.33;57.93;97066.13;2067639;28;20681;-66
2022/10/26 15:20:20;;;;;;;5.45;1.50;;;;;;;21.29;57.45;97049.63;2066003;28;20233;-66
2022/10/26 15:21:25;;;;;;;17.65;1.75;;;;;;;21.38;57.55;97069.25;2068440;28;20279;-66
2022/10/26 15:22:28;;;;;;;6.20;2.00;;;;;;;21.40;57.67;97053.22;2064732;28;20195;-66
2022/10/26 15:23:37;;;;;;;9.38;1.85;;;;;;;21.54;57.07;97072.31;2065936;28;20202;-66
2022/10/26 15:24:39;;;;;;;4.68;1.45;;;;;;;21.20;58.15;97066.28;2071597;28;20292;-66
2022/10/26 15:25:49;;;;;;;8.55;1.70;;;;;;;21.05;58.95;97065.72;2073048;28;20351;-66
2022/10/26 15:26:51;;;;;;;8.73;2.60;;;;;;;20.75;59.11;97072.53;2068487;28;20601;-66
2022/10/26 15:27:53;;;;;;;5.72;1.70;;;;;;;21.23;57.90;97075.81;2068010;28;20281;-66
2022/10/26 15:28:54;;;;;;;7.50;1.42;;;;;;;21.87;55.91;97067.03;2068010;28;20294;-66
2022/10/26 15:30:17;;;;;;;8.07;1.85;;;;;;;22.23;55.96;97077.34;2068137;28;20306;-66
2022/10/26 15:31:19;;;;;;;6.20;1.90;;;;;;;22.33;55.57;97068.44;2065244;28;20233;-66
2022/10/26 15:32:29;;;;;;;7.95;1.67;;;;;;;22.34;55.78;97062.13;2067644;28;20221;-66
2022/10/26 15:33:32;;;;;;;9.23;1.40;;;;;;;22.55;55.12;97065.75;2068603;28;20248;-66
2022/10/26 15:34:34;;;;;;;7.13;1.30;;;;;;;22.50;55.02;97069.66;2066302;28;20222;-66
2022/10/26 15:35:35;;;;;;;10.10;1.65;;;;;;;22.25;54.67;97072.75;2067513;28;20199;-66
2022/10/26 15:36:38;;;;;;;7.93;1.70;;;;;;;22.07;55.23;97061.81;2066391;28;20233;-66
2022/10/26 15:37:40;;;;;;;7.72;1.50;;;;;;;21.94;56.46;97076.19;2068632;28;20345;-66
2022/10/26 15:38:43;;;;;;;11.73;2.58;;;;;;;21.92;57.45;97083.44;2068834;28;20205;-67
2022/10/26 15:39:44;;;;;;;15.65;3.50;;;;;;;21.65;57.90;97068.81;2068544;28;20251;-67
2022/10/26 15:40:46;;;;;;;28.45;9.82;;;;;;;21.64;58.64;97077.75;2064823;28;20236;-67
2022/10/26 15:41:48;;;;;;;29.65;14.63;;;;;;;21.43;59.71;97084.81;2065650;28;20207;-68
2022/10/26 15:42:51;;;;;;;16.00;7.70;;;;;;;21.12;60.54;97060.78;2068130;28;20668;-69
2022/10/26 15:43:55;;;;;;;20.25;8.18;;;;;;;21.12;60.91;97080.19;2067893;28;20804;-69
2022/10/26 15:44:58;;;;;;;14.00;5.43;;;;;;;21.01;61.25;97073.09;2068640;28;20229;-71
2022/10/26 15:46:01;;;;;;;16.02;4.65;;;;;;;20.90;61.09;97069.59;2064367;28;20693;-71
2022/10/26 15:47:02;;;;;;;7.90;2.97;;;;;;;20.75;61.22;97067.22;2066107;28;20536;-71
2022/10/26 15:48:35;;;;;;;14.90;2.70;;;;;;;20.69;59.42;97078.28;2068552;28;20200;-71
2022/10/26 15:49:37;;;;;;;6.68;1.50;;;;;;;20.52;58.54;97071.66;2066304;28;20213;-71
2022/10/26 15:50:38;;;;;;;6.43;2.05;;;;;;;20.32;60.05;97070.56;2067616;28;20282;-72
2022/10/26 15:51:43;;;;;;;20.17;6.93;;;;;;;20.09;60.93;97067.00;2067469;28;20199;-72
2022/10/26 15:52:45;;;;;;;22.50;9.68;;;;;;;20.11;62.70;97081.84;2068686;28;20647;-72
2022/10/26 15:53:50;;;;;;;17.45;7.60;;;;;;;19.78;62.85;97059.56;2067688;28;20607;-72
2022/10/26 15:54:51;;;;;;;17.95;4.95;;;;;;;19.80;64.02;97086.78;2068220;28;20253;-72
2022/10/26 15:55:56;;;;;;;21.15;6.25;;;;;;;19.72;64.44;97089.19;2068500;28;20788;-72
2022/10/26 15:56:58;;;;;;;16.10;6.38;;;;;;;19.53;65.38;97068.53;2064680;28;20830;-72
2022/10/26 16:03:05;;;;;;;12.95;3.92;;;;;;;19.18;66.30;97095.78;2066476;28;20182;-72
2022/10/26 16:04:10;;;;;;;8.18;3.00;;;;;;;19.00;66.98;97092.66;2068607;28;20234;-72
2022/10/26 16:05:14;;;;;;;6.47;2.47;;;;;;;18.83;67.32;97091.19;2068345;28;20304;-72
2022/10/26 16:06:24;;;;;;;6.45;2.42;;;;;;;18.75;67.11;97091.72;2069595;28;20198;-72
2022/10/26 16:07:26;;;;;;;8.02;2.63;;;;;;;18.53;68.00;97076.53;2069653;28;20692;-72
2022/10/26 16:08:30;;;;;;;8.27;2.80;;;;;;;18.74;67.83;97092.66;2068324;28;20224;-69
2022/10/26 16:09:31;;;;;;;5.13;2.05;;;;;;;18.20;69.30;97091.16;2067653;28;20736;-72
2022/10/26 16:10:33;;;;;;;10.93;2.78;;;;;;;18.26;69.26;97099.50;2068093;28;20202;-72
2022/10/26 16:11:34;;;;;;;10.32;2.40;;;;;;;18.18;69.35;97095.69;2068516;28;20198;-72
2022/10/26 16:12:36;;;;;;;17.85;2.63;;;;;;;18.22;68.83;97094.50;2067959;28;20328;-72
2022/10/26 16:13:37;;;;;;;8.15;2.60;;;;;;;18.24;69.04;97111.13;2068215;28;21077;-72
2022/10/26 16:14:39;;;;;;;6.07;1.60;;;;;;;18.13;69.44;97100.44;2068637;28;20251;-72
2022/10/26 16:16:00;;;;;;;5.95;2.10;;;;;;;18.08;69.71;97106.88;2068385;28;20230;-72
2022/10/26 16:17:02;;;;;;;7.38;3.17;;;;;;;18.00;70.26;97100.41;2067239;28;20225;-72
2022/10/26 16:18:04;;;;;;;20.23;3.88;;;;;;;17.91;70.52;97102.69;2066480;28;20329;-72
2022/10/26 16:19:08;;;;;;;9.07;2.92;;;;;;;17.87;70.80;97105.66;2065635;28;20213;-72
2022/10/26 16:20:29;;;;;;;16.95;3.75;;;;;;;17.81;70.69;97103.41;2068128;28;20222;-72
2022/10/26 16:28:06;;;;;;;9.23;2.28;;;;;;;17.40;72.12;97103.41;2066167;28;20210;-72
2022/10/26 16:29:12;;;;;;;9.68;2.00;;;;;;;17.38;71.79;97117.66;2066739;28;20202;-72
2022/10/26 16:30:15;;;;;;;8.07;2.08;;;;;;;17.33;71.84;97117.97;2067543;28;20237;-72
2022/10/26 16:31:18;;;;;;;10.30;3.00;;;;;;;17.17;72.57;97104.06;2064332;28;20202;-72
2022/10/26 16:32:20;;;;;;;17.70;2.63;;;;;;;17.20;72.20;97112.59;2066392;28;20374;-72
2022/10/26 16:33:21;;;;;;;11.60;2.80;;;;;;;17.05;72.44;97106.53;2068042;28;20307;-72
2022/10/26 16:34:27;;;;;;;11.45;2.22;;;;;;;17.01;72.37;97109.44;2068681;28;20672;-71
2022/10/26 16:35:28;;;;;;;10.07;1.85;;;;;;;17.08;72.61;97127.44;2068026;28;20288;-72
2022/10/26 16:36:32;;;;;;;4.63;1.90;;;;;;;16.95;72.74;97127.38;2067742;28;20233;-72